createdAt,value
2019-02-16T00:00:14.499Z,14.35
2019-02-16T00:02:53.041Z,13.65
2019-02-16T00:05:31.598Z,13.85
2019-02-16T00:08:13.694Z,13.65
2019-02-16T00:10:48.751Z,12.03
2019-02-16T00:13:24.122Z,16.17
2019-02-16T00:16:02.611Z,14.40
2019-02-16T00:18:33.639Z,15.15
2019-02-16T00:21:05.252Z,12.50
2019-02-16T00:23:36.752Z,12.53
2019-02-16T00:26:08.140Z,14.13
2019-02-16T00:28:41.467Z,19.40
2019-02-16T00:31:19.119Z,17.02
2019-02-16T00:33:50.644Z,14.43
2019-02-16T00:36:24.728Z,22.20
2019-02-16T00:38:57.413Z,11.48
2019-02-16T00:41:28.307Z,11.05
2019-02-16T00:44:04.232Z,13.62
2019-02-16T00:47:07.225Z,13.43
2019-02-16T00:49:35.435Z,10.38
2019-02-16T00:52:05.740Z,12.37
2019-02-16T00:54:36.381Z,13.35
2019-02-16T00:57:07.442Z,13.05
2019-02-16T00:59:37.973Z,12.60
2019-02-16T01:02:08.258Z,12.73
2019-02-16T01:04:39.268Z,11.73
2019-02-16T01:07:09.851Z,16.20
2019-02-16T01:09:43.483Z,15.30
2019-02-16T01:12:14.589Z,9.60
2019-02-16T01:14:47.562Z,13.13
2019-02-16T01:17:18.640Z,12.80
2019-02-16T01:19:52.762Z,20.72
2019-02-16T01:22:25.848Z,13.68
2019-02-16T01:24:58.617Z,10.58
2019-02-16T01:27:28.783Z,12.03
2019-02-16T01:29:59.112Z,14.50
2019-02-16T01:32:31.783Z,10.23
2019-02-16T01:35:04.025Z,9.70
2019-02-16T01:37:36.263Z,15.05
2019-02-16T01:40:10.552Z,14.30
2019-02-16T01:42:40.928Z,12.20
2019-02-16T01:45:11.548Z,13.13
2019-02-16T01:47:41.905Z,10.85
2019-02-16T01:50:15.839Z,13.62
2019-02-16T01:52:46.472Z,9.73
2019-02-16T01:55:21.924Z,17.77
2019-02-16T01:57:52.388Z,11.97
2019-02-16T02:00:22.873Z,15.25
2019-02-16T02:02:53.386Z,13.50
2019-02-16T02:05:23.969Z,14.47
2019-02-16T02:07:57.019Z,17.95
2019-02-16T02:10:36.185Z,11.70
2019-02-16T02:13:06.547Z,13.30
2019-02-16T02:15:44.039Z,17.15
2019-02-16T02:18:14.092Z,12.13
2019-02-16T02:20:44.289Z,14.40
2019-02-16T02:23:15.071Z,14.28
2019-02-16T02:25:54.108Z,20.62
2019-02-16T02:28:24.361Z,14.60
2019-02-16T02:30:54.720Z,12.13
2019-02-16T02:33:28.453Z,12.20
2019-02-16T02:35:58.699Z,11.75
2019-02-16T02:38:31.125Z,13.38
2019-02-16T02:41:01.550Z,15.55
2019-02-16T02:43:31.690Z,14.35
2019-02-16T02:46:01.871Z,12.58
2019-02-16T02:48:32.072Z,13.08
2019-02-16T02:51:02.356Z,10.85
2019-02-16T02:53:32.694Z,12.43
2019-02-16T02:56:02.862Z,11.55
2019-02-16T02:58:33.033Z,12.35
2019-02-16T03:01:03.458Z,16.95
2019-02-16T03:03:33.741Z,13.83
2019-02-16T03:06:04.025Z,12.93
2019-02-16T03:08:34.295Z,15.53
2019-02-16T03:11:04.420Z,10.23
2019-02-16T03:13:34.908Z,11.50
2019-02-16T03:16:05.182Z,15.48
2019-02-16T03:18:35.395Z,14.55
2019-02-16T03:21:05.683Z,14.98
2019-02-16T03:23:36.237Z,12.37
2019-02-16T03:26:38.217Z,15.45
2019-02-16T03:29:43.093Z,18.10
2019-02-16T03:33:17.275Z,14.55
2019-02-16T03:36:39.735Z,11.45
2019-02-16T03:39:20.049Z,18.02
2019-02-16T03:41:51.695Z,14.83
2019-02-16T03:44:22.034Z,23.00
2019-02-16T03:46:52.082Z,16.12
2019-02-16T03:49:22.814Z,21.37
2019-02-16T03:51:53.038Z,15.23
2019-02-16T03:54:25.246Z,12.90
2019-02-16T03:56:55.429Z,12.98
2019-02-16T03:59:25.690Z,18.40
2019-02-16T04:01:55.943Z,13.95
2019-02-16T04:04:25.937Z,14.43
2019-02-16T04:06:56.165Z,12.50
2019-02-16T04:09:26.558Z,17.62
2019-02-16T04:11:56.598Z,10.80
2019-02-16T04:14:26.741Z,13.43
2019-02-16T04:16:56.950Z,12.20
2019-02-16T04:19:27.179Z,16.02
2019-02-16T04:21:57.364Z,12.03
2019-02-16T04:24:27.845Z,19.30
2019-02-16T04:26:58.046Z,14.23
2019-02-16T04:29:28.344Z,15.18
2019-02-16T04:31:58.521Z,10.08
2019-02-16T04:34:28.918Z,12.53
2019-02-16T04:36:59.116Z,12.73
2019-02-16T04:39:29.307Z,13.20
2019-02-16T04:41:59.431Z,11.40
2019-02-16T04:44:29.742Z,12.03
2019-02-16T04:47:00.168Z,16.97
2019-02-16T04:49:30.452Z,12.82
2019-02-16T04:52:00.882Z,15.95
2019-02-16T04:54:31.183Z,16.80
2019-02-16T04:57:01.625Z,9.25
2019-02-16T04:59:32.857Z,11.20
2019-02-16T05:02:03.325Z,11.90
2019-02-16T05:04:33.803Z,11.65
2019-02-16T05:07:04.060Z,9.63
2019-02-16T05:09:34.283Z,12.33
2019-02-16T05:12:04.745Z,17.52
2019-02-16T05:14:35.147Z,14.60
2019-02-16T05:17:05.518Z,10.85
2019-02-16T05:19:35.969Z,15.48
2019-02-16T05:22:06.490Z,12.20
2019-02-16T05:24:37.002Z,9.50
2019-02-16T05:27:07.513Z,13.80
2019-02-16T05:29:37.996Z,13.43
2019-02-16T05:32:08.427Z,11.22
2019-02-16T05:34:42.257Z,11.00
2019-02-16T05:37:12.578Z,8.90
2019-02-16T05:39:42.852Z,9.88
2019-02-16T05:42:15.114Z,10.63
2019-02-16T05:44:48.078Z,11.08
2019-02-16T05:47:18.512Z,11.30
2019-02-16T05:49:48.852Z,14.60
2019-02-16T05:52:25.254Z,10.80
2019-02-16T05:54:58.793Z,14.53
2019-02-16T05:57:36.401Z,14.25
2019-02-16T06:00:11.358Z,11.63
2019-02-16T06:02:54.982Z,10.13
2019-02-16T06:05:31.013Z,10.72
2019-02-16T06:08:23.640Z,8.90
2019-02-16T06:10:59.399Z,10.72
2019-02-16T06:13:29.945Z,10.85
2019-02-16T06:16:00.108Z,11.95
2019-02-16T06:18:30.956Z,10.78
2019-02-16T06:21:01.935Z,15.78
2019-02-16T06:23:32.694Z,11.60
2019-02-16T06:26:04.052Z,15.25
2019-02-16T06:28:35.613Z,14.60
2019-02-16T06:31:06.078Z,10.85
2019-02-16T06:33:36.303Z,13.80
2019-02-16T06:36:14.608Z,15.28
2019-02-16T06:38:44.837Z,13.05
2019-02-16T06:41:15.035Z,11.10
2019-02-16T06:43:46.043Z,14.90
2019-02-16T06:46:16.111Z,13.32
2019-02-16T06:48:46.019Z,13.58
2019-02-16T06:51:23.312Z,12.13
2019-02-16T06:53:53.174Z,13.98
2019-02-16T06:56:45.592Z,16.40
2019-02-16T06:59:15.528Z,16.17
2019-02-16T07:01:45.421Z,15.50
2019-02-16T07:04:15.317Z,17.70
2019-02-16T07:06:45.313Z,13.83
2019-02-16T07:09:15.317Z,13.90
2019-02-16T07:11:45.215Z,14.38
2019-02-16T07:14:15.188Z,12.30
2019-02-16T07:17:10.627Z,13.43
2019-02-16T07:19:45.451Z,15.13
2019-02-16T07:22:15.574Z,18.52
2019-02-16T07:24:45.604Z,12.15
2019-02-16T07:27:15.771Z,18.25
2019-02-16T07:29:45.787Z,15.28
2019-02-16T07:32:15.708Z,19.92
2019-02-16T07:34:45.771Z,13.40
2019-02-16T07:37:15.756Z,15.05
2019-02-16T07:39:45.978Z,15.20
2019-02-16T07:42:16.147Z,16.95
2019-02-16T07:44:55.151Z,27.00
2019-02-16T07:47:33.817Z,13.25
2019-02-16T07:50:12.287Z,14.40
2019-02-16T07:52:51.516Z,15.10
2019-02-16T07:55:34.854Z,16.42
2019-02-16T07:58:15.444Z,15.50
2019-02-16T08:01:13.964Z,24.82
2019-02-16T08:03:58.870Z,30.40
2019-02-16T08:06:50.813Z,29.50
2019-02-16T08:09:52.164Z,31.80
2019-02-16T08:12:59.680Z,30.20
2019-02-16T08:15:46.183Z,36.80
2019-02-16T08:18:37.852Z,44.48
2019-02-16T08:21:44.105Z,29.45
2019-02-16T08:24:30.889Z,37.80
2019-02-16T08:27:07.309Z,29.00
2019-02-16T08:29:55.353Z,31.48
2019-02-16T08:32:44.988Z,33.55
2019-02-16T08:35:34.532Z,25.30
2019-02-16T08:38:22.551Z,36.25
2019-02-16T08:41:01.841Z,36.88
2019-02-16T08:43:54.475Z,28.42
2019-02-16T08:46:40.408Z,33.70
2019-02-16T08:49:17.147Z,36.88
2019-02-16T08:52:11.962Z,28.42
2019-02-16T08:55:07.926Z,26.75
2019-02-16T08:58:03.324Z,27.52
2019-02-16T09:00:55.947Z,29.80
2019-02-16T09:03:40.731Z,32.78
2019-02-16T09:06:30.327Z,26.35
2019-02-16T09:09:18.102Z,25.45
2019-02-16T09:12:07.554Z,29.70
2019-02-16T09:14:47.390Z,27.45
2019-02-16T09:17:55.035Z,22.73
2019-02-16T09:20:42.098Z,22.15
2019-02-16T09:23:21.735Z,26.48
2019-02-16T09:26:09.530Z,39.00
2019-02-16T09:29:17.196Z,21.80
2019-02-16T09:31:54.888Z,22.75
2019-02-16T09:34:44.692Z,23.40
2019-02-16T09:37:33.018Z,21.40
2019-02-16T09:40:22.944Z,30.05
2019-02-16T09:43:12.556Z,22.32
2019-02-16T09:46:05.053Z,21.23
2019-02-16T09:48:51.539Z,28.38
2019-02-16T09:51:39.551Z,25.27
2019-02-16T09:54:47.267Z,25.90
2019-02-16T09:57:46.647Z,29.00
2019-02-16T10:00:28.732Z,19.67
2019-02-16T10:03:13.422Z,27.93
2019-02-16T10:05:52.311Z,32.33
2019-02-16T10:08:34.841Z,26.25
2019-02-16T10:11:42.255Z,25.00
2019-02-16T10:14:44.924Z,24.45
2019-02-16T10:17:33.250Z,28.38
2019-02-16T10:20:29.736Z,27.90
2019-02-16T10:23:23.899Z,28.40
2019-02-16T10:26:02.510Z,34.78
2019-02-16T10:28:58.052Z,25.60
2019-02-16T10:31:37.562Z,27.60
2019-02-16T10:34:23.639Z,23.27
2019-02-16T10:37:02.000Z,26.35
2019-02-16T10:39:49.965Z,26.55
2019-02-16T10:42:41.745Z,27.77
2019-02-16T10:45:55.205Z,28.05
2019-02-16T10:48:48.885Z,37.75
2019-02-16T10:51:25.760Z,26.23
2019-02-16T10:54:11.961Z,22.32
2019-02-16T10:57:08.244Z,26.95
2019-02-16T11:00:28.068Z,21.17
2019-02-16T11:03:17.153Z,25.50
2019-02-16T11:06:01.498Z,29.10
2019-02-16T11:08:58.271Z,25.70
2019-02-16T11:11:50.975Z,25.65
2019-02-16T11:14:35.050Z,29.77
2019-02-16T11:17:33.185Z,31.85
2019-02-16T11:20:34.871Z,34.35
2019-02-16T11:23:26.478Z,31.45
2019-02-16T11:26:23.520Z,27.75
2019-02-16T11:29:28.711Z,21.17
2019-02-16T11:32:23.598Z,26.40
2019-02-16T11:35:31.216Z,25.20
2019-02-16T11:38:33.116Z,26.48
2019-02-16T11:41:23.703Z,28.00
2019-02-16T11:44:13.063Z,28.15
2019-02-16T11:47:02.836Z,23.22
2019-02-16T11:49:52.737Z,25.05
2019-02-16T11:52:42.283Z,24.52
2019-02-16T11:55:30.925Z,24.05
2019-02-16T11:58:11.306Z,21.50
2019-02-16T12:01:19.186Z,28.30
2019-02-16T12:04:08.936Z,20.90
2019-02-16T12:06:53.413Z,69.45
2019-02-16T12:09:31.752Z,29.42
2019-02-16T12:12:13.447Z,28.27
2019-02-16T12:15:00.894Z,52.78
2019-02-16T12:18:02.505Z,27.55
2019-02-16T12:20:47.121Z,28.02
2019-02-16T12:23:56.676Z,27.85
2019-02-16T12:26:55.968Z,24.65
2019-02-16T12:29:42.056Z,25.15
2019-02-16T12:32:22.799Z,27.25
2019-02-16T12:35:12.964Z,30.80
2019-02-16T12:37:57.210Z,21.52
2019-02-16T12:41:02.000Z,26.52
2019-02-16T12:43:51.360Z,20.92
2019-02-16T12:46:28.908Z,26.93
2019-02-16T12:49:06.369Z,30.45
2019-02-16T12:52:01.566Z,29.63
2019-02-16T12:55:00.306Z,23.70
2019-02-16T12:57:34.775Z,28.55
2019-02-16T13:00:35.277Z,29.67
2019-02-16T13:03:29.926Z,31.73
2019-02-16T13:06:14.202Z,22.52
2019-02-16T13:09:01.998Z,24.18
2019-02-16T13:11:57.758Z,22.75
2019-02-16T13:14:50.334Z,27.00
2019-02-16T13:17:42.346Z,24.23
2019-02-16T13:20:52.853Z,26.20
2019-02-16T13:23:37.019Z,19.87
2019-02-16T13:26:39.500Z,23.80
2019-02-16T13:29:26.048Z,36.53
2019-02-16T13:32:06.507Z,16.15
2019-02-16T13:34:58.704Z,19.07
2019-02-16T13:37:53.915Z,15.10
2019-02-16T13:40:32.978Z,23.22
2019-02-16T13:43:25.306Z,14.07
2019-02-16T13:46:05.393Z,17.02
2019-02-16T13:48:42.937Z,15.03
2019-02-16T13:51:20.725Z,15.08
2019-02-16T13:54:16.033Z,15.43
2019-02-16T13:57:08.167Z,15.78
2019-02-16T13:59:48.351Z,14.38
2019-02-16T14:02:37.832Z,20.82
2019-02-16T14:05:39.185Z,17.12
2019-02-16T14:08:16.973Z,21.93
2019-02-16T14:10:56.390Z,14.23
2019-02-16T14:13:42.398Z,12.50
2019-02-16T14:16:34.906Z,10.95
2019-02-16T14:19:04.994Z,14.00
2019-02-16T14:21:35.049Z,19.87
2019-02-16T14:24:05.126Z,13.62
2019-02-16T14:26:35.244Z,16.90
2019-02-16T14:29:05.485Z,14.07
2019-02-16T14:31:35.748Z,14.47
2019-02-16T14:34:05.602Z,14.80
2019-02-16T14:36:35.722Z,12.60
2019-02-16T14:39:15.407Z,13.90
2019-02-16T14:41:45.442Z,14.35
2019-02-16T14:44:15.444Z,15.95
2019-02-16T14:46:45.449Z,14.28
2019-02-16T14:49:16.274Z,13.95
2019-02-16T14:51:46.310Z,10.28
2019-02-16T14:54:16.432Z,10.40
2019-02-16T14:56:47.371Z,8.05
2019-02-16T14:59:17.445Z,12.47
2019-02-16T15:01:47.502Z,12.18
2019-02-16T15:04:17.577Z,14.43
2019-02-16T15:06:47.614Z,13.72
2019-02-16T15:09:17.917Z,10.82
2019-02-16T15:11:48.815Z,14.15
2019-02-16T15:14:18.928Z,51.28
2019-02-16T15:16:49.129Z,35.40
2019-02-16T15:19:19.549Z,41.48
2019-02-16T15:21:49.891Z,24.80
2019-02-16T15:24:19.923Z,21.60
2019-02-16T15:26:49.933Z,13.48
2019-02-16T15:29:22.097Z,15.38
2019-02-16T15:31:51.996Z,16.77
2019-02-16T15:34:22.025Z,19.57
2019-02-16T15:36:51.974Z,25.00
2019-02-16T15:39:22.238Z,20.12
2019-02-16T15:41:52.331Z,18.07
2019-02-16T15:44:22.453Z,17.48
2019-02-16T15:46:52.640Z,18.32
2019-02-16T15:49:22.927Z,18.30
2019-02-16T15:51:53.095Z,25.45
2019-02-16T15:54:23.115Z,20.90
2019-02-16T15:56:53.140Z,18.98
2019-02-16T15:59:23.302Z,22.45
2019-02-16T16:01:53.377Z,29.37
2019-02-16T16:04:23.689Z,23.65
2019-02-16T16:06:53.877Z,24.47
2019-02-16T16:09:32.188Z,28.32
2019-02-16T16:12:21.834Z,19.67
2019-02-16T16:15:15.319Z,19.98
2019-02-16T16:18:15.976Z,20.32
2019-02-16T16:21:04.944Z,21.33
2019-02-16T16:24:07.106Z,23.52
2019-02-16T16:27:00.029Z,24.37
2019-02-16T16:29:50.097Z,22.20
2019-02-16T16:32:51.145Z,20.43
2019-02-16T16:35:41.876Z,21.37
2019-02-16T16:38:38.692Z,25.68
2019-02-16T16:41:28.443Z,25.50
2019-02-16T16:44:21.737Z,22.93
2019-02-16T16:47:14.204Z,23.35
2019-02-16T16:50:41.005Z,23.98
2019-02-16T16:53:30.791Z,21.15
2019-02-16T16:56:08.492Z,26.10
2019-02-16T16:58:43.187Z,26.33
2019-02-16T17:01:48.022Z,21.93
2019-02-16T17:04:49.442Z,22.65
2019-02-16T17:07:31.116Z,22.45
2019-02-16T17:10:23.290Z,16.52
2019-02-16T17:14:55.659Z,24.00
2019-02-16T17:16:42.135Z,36.68
2019-02-16T17:19:41.289Z,26.35
2019-02-16T17:22:29.113Z,25.35
2019-02-16T17:25:21.387Z,23.38
2019-02-16T17:28:16.804Z,26.62
2019-02-16T17:30:57.411Z,20.62
2019-02-16T17:33:47.621Z,22.60
2019-02-16T17:36:49.205Z,28.65
2019-02-16T17:39:29.472Z,25.90
2019-02-16T17:42:34.278Z,28.80
2019-02-16T17:45:34.980Z,20.90
2019-02-16T17:48:19.026Z,24.18
2019-02-16T17:51:08.804Z,25.97
2019-02-16T17:54:08.521Z,26.25
2019-02-16T17:56:56.322Z,25.05
2019-02-16T17:59:56.542Z,22.15
2019-02-16T18:02:58.195Z,22.60
2019-02-16T18:05:45.683Z,19.30
2019-02-16T18:08:42.157Z,24.87
2019-02-16T18:14:25.878Z,21.05
2019-02-16T18:17:36.778Z,19.48
2019-02-16T18:20:18.769Z,23.57
2019-02-16T18:23:04.374Z,32.35
2019-02-16T18:25:43.259Z,28.98
2019-02-16T18:29:24.533Z,25.55
2019-02-16T18:35:53.600Z,25.08
2019-02-16T18:38:33.969Z,36.13
2019-02-16T18:41:12.996Z,28.07
2019-02-16T18:44:06.134Z,30.48
2019-02-16T18:47:29.862Z,25.95
2019-02-16T18:50:18.760Z,28.98
2019-02-16T18:53:11.198Z,23.15
2019-02-16T18:55:56.454Z,34.78
2019-02-16T18:58:53.634Z,28.30
2019-02-16T19:01:42.035Z,25.08
2019-02-16T19:04:33.193Z,24.77
2019-02-16T19:07:27.889Z,28.87
2019-02-16T19:10:35.301Z,23.90
2019-02-16T19:13:17.233Z,28.40
2019-02-16T19:16:07.012Z,35.80
2019-02-16T19:18:49.493Z,28.67
2019-02-16T19:21:43.390Z,29.12
2019-02-16T19:24:47.137Z,26.50
2019-02-16T19:27:41.192Z,29.45
2019-02-16T19:30:32.546Z,24.70
2019-02-16T19:33:24.417Z,26.52
2019-02-16T19:36:09.643Z,20.85
2019-02-16T19:39:03.760Z,22.32
2019-02-16T19:42:05.439Z,28.42
2019-02-16T19:45:04.299Z,24.52
2019-02-16T19:47:56.704Z,23.35
2019-02-16T19:53:35.964Z,26.93
2019-02-16T19:56:54.039Z,26.95
2019-02-16T20:07:44.859Z,27.73
2019-02-16T20:59:22.307Z,28.45
2019-02-16T21:02:29.997Z,22.75
2019-02-16T21:05:18.187Z,24.75
2019-02-16T21:08:10.274Z,30.72
2019-02-16T21:11:06.571Z,37.58
2019-02-16T21:13:57.413Z,31.07
2019-02-16T21:16:47.685Z,23.92
2019-02-16T21:19:36.518Z,27.13
2019-02-16T21:22:34.724Z,23.87
2019-02-16T21:25:27.563Z,21.73
2019-02-16T21:28:10.244Z,25.32
2019-02-16T21:31:12.115Z,31.17
2019-02-16T21:33:50.568Z,25.37
2019-02-16T21:36:38.866Z,26.07
2019-02-16T21:39:29.472Z,30.15
2019-02-16T21:42:29.579Z,26.82
2019-02-16T21:45:19.823Z,25.40
2019-02-16T21:48:15.710Z,24.65
2019-02-16T21:51:21.256Z,26.25
2019-02-16T21:54:08.523Z,25.90
2019-02-16T21:56:57.077Z,24.43
2019-02-16T21:59:50.450Z,24.47
2019-02-16T22:02:50.416Z,28.55
2019-02-16T22:05:32.034Z,31.23
2019-02-16T22:08:37.644Z,30.10
2019-02-16T22:11:32.968Z,25.92
2019-02-16T22:14:10.553Z,27.07
2019-02-16T22:16:42.170Z,30.80
2019-02-16T22:19:15.045Z,26.48
2019-02-16T22:21:48.015Z,30.82
2019-02-16T22:24:18.706Z,21.73
2019-02-16T22:26:50.848Z,30.35
2019-02-16T22:29:25.753Z,22.07
2019-02-16T22:31:55.917Z,32.00
2019-02-16T22:34:26.015Z,28.73
2019-02-16T22:36:56.159Z,27.98
2019-02-16T22:39:26.238Z,23.35
2019-02-16T22:41:57.578Z,21.30
2019-02-16T22:44:30.034Z,23.15
2019-02-16T22:47:08.371Z,21.82
2019-02-16T22:49:42.770Z,24.50
2019-02-16T22:52:13.094Z,27.65
2019-02-16T23:12:53.797Z,25.85
2019-02-16T23:18:23.813Z,30.30
2019-02-16T23:20:57.782Z,20.00
2019-02-16T23:23:42.853Z,32.45
